NKS3214 KIND-KEWR
Flight info
| Callsign | NKS3214 |
|---|---|
| Flight time | 1h 17m |
| Altitude | 37000 |
| Route | MAREO5 BDOCK DJB DORET J584 SLT FQM3 |
| Aircraft | A20N/M-SDE2E3FGHIRWXY/LB1 |
Departure
| Time | 2026-05-08 00:00 |
|---|---|
| Airport | Indianapolis International Airport (KIND) |
Arrival
| Time | 2026-05-08 01:18 |
|---|---|
| Airport | Newark Liberty International Airport (KEWR) |
| Time | Latitude | Longitude | Altitude | Speed | Heading |
|---|---|---|---|---|---|
| 2026-05-07 23:44 | 39.71753 | -86.29802 | 789 ft | 0 kts | 129° |
| 2026-05-07 23:52 | 39.71755 | -86.29804 | 789 ft | 5 kts | 129° |
| 2026-05-07 23:52 | 39.71774 | -86.29843 | 788 ft | 5 kts | 108° |
| 2026-05-07 23:52 | 39.71779 | -86.29890 | 788 ft | 5 kts | 84° |
| 2026-05-07 23:53 | 39.71774 | -86.29921 | 787 ft | 0 kts | 70° |
| 2026-05-07 23:54 | 39.71777 | -86.29909 | 788 ft | 4 kts | 72° |
| 2026-05-07 23:54 | 39.71783 | -86.29897 | 788 ft | 1 kts | 38° |
| 2026-05-07 23:55 | 39.71800 | -86.29889 | 788 ft | 5 kts | 23° |
| 2026-05-07 23:55 | 39.71843 | -86.29852 | 789 ft | 10 kts | 29° |
| 2026-05-07 23:55 | 39.71923 | -86.29793 | 789 ft | 17 kts | 29° |
| 2026-05-07 23:55 | 39.72033 | -86.29713 | 789 ft | 16 kts | 32° |
| 2026-05-07 23:56 | 39.72126 | -86.29621 | 788 ft | 14 kts | 33° |
| 2026-05-07 23:56 | 39.72224 | -86.29656 | 784 ft | 17 kts | 317° |
| 2026-05-07 23:56 | 39.72290 | -86.29673 | 783 ft | 17 kts | 31° |
| 2026-05-07 23:56 | 39.72385 | -86.29558 | 783 ft | 20 kts | 45° |
| 2026-05-07 23:57 | 39.72494 | -86.29420 | 781 ft | 25 kts | 44° |
| 2026-05-07 23:57 | 39.72596 | -86.29286 | 783 ft | 11 kts | 43° |
| 2026-05-07 23:57 | 39.72664 | -86.29254 | 783 ft | 2 kts | 343° |
| 2026-05-07 23:57 | 39.72685 | -86.29273 | 783 ft | 0 kts | 317° |
| 2026-05-07 23:58 | 39.72685 | -86.29274 | 783 ft | 0 kts | 317° |
| 2026-05-07 23:59 | 39.72686 | -86.29275 | 783 ft | 1 kts | 317° |
| 2026-05-07 23:59 | 39.72695 | -86.29286 | 783 ft | 3 kts | 314° |
| 2026-05-07 23:59 | 39.72726 | -86.29329 | 783 ft | 10 kts | 305° |
| 2026-05-08 00:00 | 39.72716 | -86.29430 | 782 ft | 14 kts | 231° |
| 2026-05-08 00:00 | 39.72573 | -86.29617 | 780 ft | 73 kts | 225° |
| 2026-05-08 00:00 | 39.71972 | -86.30379 | 878 ft | 158 kts | 225° |
| 2026-05-08 00:00 | 39.71114 | -86.31459 | 1734 ft | 185 kts | 226° |
| 2026-05-08 00:01 | 39.70117 | -86.32741 | 2390 ft | 220 kts | 226° |
| 2026-05-08 00:01 | 39.68761 | -86.33842 | 3464 ft | 241 kts | 199° |
| 2026-05-08 00:01 | 39.67031 | -86.33901 | 4774 ft | 261 kts | 171° |
| 2026-05-08 00:01 | 39.65364 | -86.32829 | 6109 ft | 278 kts | 143° |
| 2026-05-08 00:02 | 39.64155 | -86.30788 | 7360 ft | 295 kts | 116° |
| 2026-05-08 00:02 | 39.63701 | -86.28201 | 8598 ft | 304 kts | 89° |
| 2026-05-08 00:02 | 39.64082 | -86.25494 | 9853 ft | 309 kts | 68° |
| 2026-05-08 00:02 | 39.64757 | -86.22787 | 10824 ft | 327 kts | 68° |
| 2026-05-08 00:03 | 39.65468 | -86.19853 | 11524 ft | 352 kts | 68° |
| 2026-05-08 00:03 | 39.66219 | -86.16736 | 12331 ft | 369 kts | 68° |
| 2026-05-08 00:03 | 39.66990 | -86.13529 | 13500 ft | 374 kts | 67° |
| 2026-05-08 00:03 | 39.67776 | -86.10271 | 14475 ft | 384 kts | 67° |
| 2026-05-08 00:04 | 39.68592 | -86.06914 | 15335 ft | 395 kts | 66° |
| 2026-05-08 00:04 | 39.69431 | -86.03468 | 16222 ft | 405 kts | 66° |
| 2026-05-08 00:04 | 39.70291 | -85.99933 | 17086 ft | 415 kts | 66° |
| 2026-05-08 00:04 | 39.71171 | -85.96310 | 17959 ft | 425 kts | 66° |
| 2026-05-08 00:05 | 39.72071 | -85.92602 | 18720 ft | 434 kts | 66° |
| 2026-05-08 00:05 | 39.72986 | -85.88828 | 19515 ft | 442 kts | 66° |
| 2026-05-08 00:05 | 39.73902 | -85.85041 | 20397 ft | 446 kts | 66° |
| 2026-05-08 00:05 | 39.74842 | -85.81151 | 21128 ft | 456 kts | 67° |
| 2026-05-08 00:06 | 39.75802 | -85.77181 | 21850 ft | 464 kts | 67° |
| 2026-05-08 00:06 | 39.76776 | -85.73142 | 22572 ft | 473 kts | 67° |
| 2026-05-08 00:06 | 39.77766 | -85.69027 | 23289 ft | 481 kts | 68° |
| 2026-05-08 00:06 | 39.78771 | -85.64841 | 23945 ft | 488 kts | 68° |
| 2026-05-08 00:07 | 39.79786 | -85.60603 | 24633 ft | 493 kts | 68° |
| 2026-05-08 00:07 | 39.80808 | -85.56327 | 25289 ft | 498 kts | 68° |
| 2026-05-08 00:07 | 39.81841 | -85.52001 | 25928 ft | 503 kts | 68° |
| 2026-05-08 00:07 | 39.82885 | -85.47619 | 26555 ft | 509 kts | 68° |
| 2026-05-08 00:08 | 39.83938 | -85.43195 | 27161 ft | 514 kts | 68° |
| 2026-05-08 00:08 | 39.84999 | -85.38732 | 27680 ft | 521 kts | 68° |
| 2026-05-08 00:08 | 39.86072 | -85.34208 | 28255 ft | 525 kts | 69° |
| 2026-05-08 00:08 | 39.87139 | -85.29697 | 28794 ft | 530 kts | 69° |
| 2026-05-08 00:09 | 39.88081 | -85.25025 | 29316 ft | 538 kts | 76° |
| 2026-05-08 00:09 | 39.88557 | -85.20159 | 29833 ft | 545 kts | 84° |
| 2026-05-08 00:09 | 39.88815 | -85.15224 | 30303 ft | 549 kts | 84° |
| 2026-05-08 00:09 | 39.89085 | -85.10242 | 30747 ft | 553 kts | 84° |
| 2026-05-08 00:10 | 39.89358 | -85.05217 | 31201 ft | 557 kts | 84° |
| 2026-05-08 00:10 | 39.89633 | -85.00162 | 31673 ft | 561 kts | 84° |
| 2026-05-08 00:10 | 39.89905 | -84.95092 | 32232 ft | 562 kts | 84° |
| 2026-05-08 00:10 | 39.90175 | -84.90009 | 32816 ft | 562 kts | 84° |
| 2026-05-08 00:11 | 39.90442 | -84.84917 | 33378 ft | 562 kts | 84° |
| 2026-05-08 00:11 | 39.90708 | -84.79832 | 33921 ft | 563 kts | 84° |
| 2026-05-08 00:11 | 39.90971 | -84.74742 | 34402 ft | 563 kts | 85° |
| 2026-05-08 00:11 | 39.91229 | -84.69721 | 34985 ft | 560 kts | 85° |
| 2026-05-08 00:12 | 39.91486 | -84.64661 | 35547 ft | 558 kts | 85° |
| 2026-05-08 00:12 | 39.91740 | -84.59616 | 35969 ft | 559 kts | 85° |
| 2026-05-08 00:12 | 39.91993 | -84.54567 | 36399 ft | 559 kts | 85° |
| 2026-05-08 00:12 | 39.92243 | -84.49522 | 36817 ft | 558 kts | 85° |
| 2026-05-08 00:13 | 39.92492 | -84.44453 | 36992 ft | 564 kts | 85° |
| 2026-05-08 00:13 | 39.92743 | -84.39310 | 37015 ft | 573 kts | 85° |
| 2026-05-08 00:13 | 39.93379 | -84.28878 | 37025 ft | 577 kts | 77° |
| 2026-05-08 00:14 | 39.94370 | -84.23831 | 37004 ft | 573 kts | 66° |
| 2026-05-08 00:14 | 39.95982 | -84.19122 | 37010 ft | 564 kts | 54° |
| 2026-05-08 00:14 | 39.98114 | -84.14970 | 37017 ft | 551 kts | 43° |
| 2026-05-08 00:14 | 40.00753 | -84.11350 | 37022 ft | 539 kts | 33° |
| 2026-05-08 00:15 | 40.06273 | -84.04835 | 37005 ft | 540 kts | 34° |
| 2026-05-08 00:15 | 40.11582 | -83.97822 | 37015 ft | 543 kts | 38° |
| 2026-05-08 00:16 | 40.16725 | -83.90564 | 37015 ft | 544 kts | 39° |
| 2026-05-08 00:16 | 40.21826 | -83.83283 | 37009 ft | 546 kts | 39° |
| 2026-05-08 00:17 | 40.26965 | -83.75938 | 37009 ft | 546 kts | 39° |
| 2026-05-08 00:17 | 40.32088 | -83.68607 | 37018 ft | 544 kts | 39° |
| 2026-05-08 00:18 | 40.37195 | -83.61281 | 37007 ft | 544 kts | 39° |
| 2026-05-08 00:18 | 40.42301 | -83.53941 | 37007 ft | 544 kts | 39° |
| 2026-05-08 00:19 | 40.47410 | -83.46579 | 37007 ft | 546 kts | 39° |
| 2026-05-08 00:19 | 40.52487 | -83.39241 | 37001 ft | 546 kts | 39° |
| 2026-05-08 00:20 | 40.57597 | -83.31839 | 36996 ft | 545 kts | 39° |
| 2026-05-08 00:20 | 40.62697 | -83.24434 | 36992 ft | 546 kts | 39° |
| 2026-05-08 00:21 | 40.67796 | -83.17011 | 36991 ft | 546 kts | 39° |
| 2026-05-08 00:21 | 40.72891 | -83.09577 | 36996 ft | 545 kts | 40° |
| 2026-05-08 00:22 | 40.77938 | -83.02192 | 36995 ft | 546 kts | 40° |
| 2026-05-08 00:22 | 40.83019 | -82.94742 | 37003 ft | 546 kts | 40° |
| 2026-05-08 00:23 | 40.88093 | -82.87281 | 36993 ft | 546 kts | 40° |
| 2026-05-08 00:23 | 40.93165 | -82.79805 | 36992 ft | 544 kts | 40° |
| 2026-05-08 00:24 | 40.98228 | -82.72308 | 36990 ft | 549 kts | 42° |
| 2026-05-08 00:24 | 41.00458 | -82.68157 | 36992 ft | 560 kts | 54° |
| 2026-05-08 00:24 | 41.02128 | -82.63553 | 36992 ft | 569 kts | 65° |
| 2026-05-08 00:25 | 41.03235 | -82.58422 | 36986 ft | 575 kts | 77° |
| 2026-05-08 00:25 | 41.03672 | -82.53207 | 36994 ft | 577 kts | 87° |
| 2026-05-08 00:25 | 41.03903 | -82.42571 | 37002 ft | 577 kts | 83° |
| 2026-05-08 00:26 | 41.04979 | -82.32008 | 36998 ft | 580 kts | 80° |
| 2026-05-08 00:26 | 41.06215 | -82.21466 | 36995 ft | 579 kts | 78° |
| 2026-05-08 00:27 | 41.07526 | -82.10942 | 36996 ft | 578 kts | 78° |
| 2026-05-08 00:27 | 41.08829 | -82.00476 | 36994 ft | 574 kts | 79° |
| 2026-05-08 00:28 | 41.10119 | -81.90008 | 36991 ft | 575 kts | 79° |
| 2026-05-08 00:28 | 41.11396 | -81.79544 | 37002 ft | 575 kts | 79° |
| 2026-05-08 00:29 | 41.12656 | -81.69141 | 36992 ft | 575 kts | 79° |
| 2026-05-08 00:29 | 41.13917 | -81.58648 | 36992 ft | 579 kts | 79° |
| 2026-05-08 00:30 | 41.15171 | -81.48118 | 36959 ft | 578 kts | 79° |
| 2026-05-08 00:30 | 41.16418 | -81.37570 | 36982 ft | 578 kts | 79° |
| 2026-05-08 00:31 | 41.17654 | -81.27030 | 36991 ft | 578 kts | 79° |
| 2026-05-08 00:31 | 41.18884 | -81.16459 | 36988 ft | 579 kts | 79° |
| 2026-05-08 00:32 | 41.20103 | -81.05888 | 36983 ft | 579 kts | 79° |
| 2026-05-08 00:32 | 41.21305 | -80.95383 | 36977 ft | 576 kts | 79° |
| 2026-05-08 00:33 | 41.22500 | -80.84860 | 36962 ft | 578 kts | 79° |
| 2026-05-08 00:33 | 41.23689 | -80.74309 | 36963 ft | 578 kts | 80° |
| 2026-05-08 00:34 | 41.24869 | -80.63733 | 36962 ft | 578 kts | 80° |
| 2026-05-08 00:34 | 41.26036 | -80.53176 | 36959 ft | 578 kts | 80° |
| 2026-05-08 00:35 | 41.27194 | -80.42608 | 36986 ft | 577 kts | 80° |
| 2026-05-08 00:35 | 41.28342 | -80.32040 | 36981 ft | 577 kts | 80° |
| 2026-05-08 00:36 | 41.29480 | -80.21470 | 36982 ft | 577 kts | 80° |
| 2026-05-08 00:36 | 41.30600 | -80.10980 | 36970 ft | 575 kts | 81° |
| 2026-05-08 00:37 | 41.31714 | -80.00452 | 36952 ft | 575 kts | 81° |
| 2026-05-08 00:38 | 41.33367 | -79.84633 | 36958 ft | 573 kts | 81° |
| 2026-05-08 00:38 | 41.34453 | -79.74152 | 36950 ft | 572 kts | 81° |
| 2026-05-08 00:39 | 41.35527 | -79.63667 | 36966 ft | 572 kts | 81° |
| 2026-05-08 00:39 | 41.36585 | -79.53241 | 36963 ft | 572 kts | 81° |
| 2026-05-08 00:40 | 41.37647 | -79.42676 | 36960 ft | 572 kts | 81° |
| 2026-05-08 00:40 | 41.38686 | -79.32263 | 36958 ft | 571 kts | 82° |
| 2026-05-08 00:41 | 41.39720 | -79.21779 | 36952 ft | 571 kts | 82° |
| 2026-05-08 00:41 | 41.40747 | -79.11281 | 36929 ft | 571 kts | 82° |
| 2026-05-08 00:42 | 41.41762 | -79.00808 | 36823 ft | 565 kts | 82° |
| 2026-05-08 00:42 | 41.42092 | -78.97375 | 36559 ft | 562 kts | 82° |
| 2026-05-08 00:42 | 41.42587 | -78.92207 | 35791 ft | 562 kts | 82° |
| 2026-05-08 00:42 | 41.43082 | -78.87014 | 34730 ft | 568 kts | 82° |
| 2026-05-08 00:43 | 41.43579 | -78.81773 | 33894 ft | 572 kts | 82° |
| 2026-05-08 00:43 | 41.44081 | -78.76462 | 33437 ft | 581 kts | 82° |
| 2026-05-08 00:43 | 41.44586 | -78.71107 | 33337 ft | 584 kts | 82° |
| 2026-05-08 00:44 | 41.45584 | -78.60405 | 33221 ft | 573 kts | 83° |
| 2026-05-08 00:44 | 41.46069 | -78.55162 | 32992 ft | 568 kts | 83° |
| 2026-05-08 00:44 | 41.46547 | -78.49972 | 32939 ft | 576 kts | 83° |
| 2026-05-08 00:45 | 41.47530 | -78.39210 | 32942 ft | 585 kts | 83° |
| 2026-05-08 00:45 | 41.48506 | -78.28419 | 32942 ft | 586 kts | 83° |
| 2026-05-08 00:46 | 41.49470 | -78.17630 | 32945 ft | 587 kts | 83° |
| 2026-05-08 00:46 | 41.50429 | -78.06843 | 32940 ft | 585 kts | 83° |
| 2026-05-08 00:47 | 41.50846 | -77.96020 | 32938 ft | 584 kts | 95° |
| 2026-05-08 00:47 | 41.49638 | -77.85386 | 32933 ft | 578 kts | 104° |
| 2026-05-08 00:48 | 41.48150 | -77.74913 | 32923 ft | 578 kts | 104° |
| 2026-05-08 00:48 | 41.46654 | -77.64379 | 32905 ft | 578 kts | 104° |
| 2026-05-08 00:49 | 41.45149 | -77.53871 | 32905 ft | 576 kts | 104° |
| 2026-05-08 00:49 | 41.43628 | -77.43361 | 32896 ft | 576 kts | 105° |
| 2026-05-08 00:50 | 41.42096 | -77.32875 | 32892 ft | 575 kts | 105° |
| 2026-05-08 00:50 | 41.40564 | -77.22432 | 32819 ft | 575 kts | 105° |
| 2026-05-08 00:51 | 41.39036 | -77.12074 | 32870 ft | 574 kts | 105° |
| 2026-05-08 00:51 | 41.37487 | -77.01656 | 32861 ft | 573 kts | 105° |
| 2026-05-08 00:52 | 41.35927 | -76.91232 | 32860 ft | 573 kts | 105° |
| 2026-05-08 00:52 | 41.34364 | -76.80837 | 32865 ft | 570 kts | 106° |
| 2026-05-08 00:53 | 41.32083 | -76.70827 | 32864 ft | 563 kts | 116° |
| 2026-05-08 00:53 | 41.29471 | -76.61070 | 32865 ft | 563 kts | 115° |
| 2026-05-08 00:54 | 41.26840 | -76.51248 | 32864 ft | 563 kts | 116° |
| 2026-05-08 00:54 | 41.25526 | -76.46354 | 32762 ft | 557 kts | 116° |
| 2026-05-08 00:54 | 41.24232 | -76.41538 | 32246 ft | 552 kts | 116° |
| 2026-05-08 00:54 | 41.22935 | -76.36731 | 31300 ft | 552 kts | 116° |
| 2026-05-08 00:55 | 41.21634 | -76.31932 | 30212 ft | 554 kts | 117° |
| 2026-05-08 00:55 | 41.20323 | -76.27103 | 28924 ft | 556 kts | 117° |
| 2026-05-08 00:55 | 41.19019 | -76.22296 | 28001 ft | 549 kts | 117° |
| 2026-05-08 00:55 | 41.17737 | -76.17570 | 27195 ft | 540 kts | 117° |
| 2026-05-08 00:56 | 41.16472 | -76.12918 | 26350 ft | 532 kts | 117° |
| 2026-05-08 00:56 | 41.15225 | -76.08349 | 25606 ft | 523 kts | 117° |
| 2026-05-08 00:56 | 41.14006 | -76.03896 | 24804 ft | 517 kts | 117° |
| 2026-05-08 00:56 | 41.12783 | -75.99438 | 23975 ft | 510 kts | 117° |
| 2026-05-08 00:57 | 41.11575 | -75.95051 | 23168 ft | 504 kts | 117° |
| 2026-05-08 00:57 | 41.10384 | -75.90723 | 22381 ft | 494 kts | 117° |
| 2026-05-08 00:57 | 41.09214 | -75.86479 | 21591 ft | 486 kts | 117° |
| 2026-05-08 00:57 | 41.08059 | -75.82298 | 20823 ft | 478 kts | 117° |
| 2026-05-08 00:58 | 41.06925 | -75.78202 | 20075 ft | 469 kts | 117° |
| 2026-05-08 00:58 | 41.05810 | -75.74181 | 19368 ft | 461 kts | 117° |
| 2026-05-08 00:58 | 41.04710 | -75.70223 | 18612 ft | 454 kts | 117° |
| 2026-05-08 00:58 | 41.03623 | -75.66320 | 17830 ft | 447 kts | 117° |
| 2026-05-08 00:59 | 41.02552 | -75.62490 | 16981 ft | 441 kts | 116° |
| 2026-05-08 00:59 | 41.01505 | -75.58749 | 16169 ft | 434 kts | 116° |
| 2026-05-08 00:59 | 41.00462 | -75.55029 | 15376 ft | 428 kts | 115° |
| 2026-05-08 00:59 | 40.99434 | -75.51362 | 14605 ft | 422 kts | 115° |
| 2026-05-08 01:00 | 40.98418 | -75.47743 | 13849 ft | 416 kts | 114° |
| 2026-05-08 01:00 | 40.97416 | -75.44174 | 13068 ft | 410 kts | 114° |
| 2026-05-08 01:00 | 40.96432 | -75.40670 | 12340 ft | 402 kts | 114° |
| 2026-05-08 01:00 | 40.95466 | -75.37226 | 11618 ft | 395 kts | 113° |
| 2026-05-08 01:01 | 40.94516 | -75.33849 | 10905 ft | 388 kts | 113° |
| 2026-05-08 01:01 | 40.93595 | -75.30579 | 10639 ft | 371 kts | 113° |
| 2026-05-08 01:01 | 40.92717 | -75.27461 | 10447 ft | 352 kts | 113° |
| 2026-05-08 01:01 | 40.91884 | -75.24502 | 10291 ft | 335 kts | 113° |
| 2026-05-08 01:02 | 40.91099 | -75.21714 | 10097 ft | 321 kts | 113° |
| 2026-05-08 01:02 | 40.90328 | -75.18994 | 9700 ft | 315 kts | 113° |
| 2026-05-08 01:02 | 40.89559 | -75.16291 | 9242 ft | 311 kts | 113° |
| 2026-05-08 01:02 | 40.88809 | -75.13648 | 8952 ft | 302 kts | 112° |
| 2026-05-08 01:03 | 40.88072 | -75.11047 | 8710 ft | 303 kts | 112° |
| 2026-05-08 01:03 | 40.87338 | -75.08457 | 8472 ft | 299 kts | 112° |
| 2026-05-08 01:03 | 40.86613 | -75.05883 | 8233 ft | 298 kts | 112° |
| 2026-05-08 01:03 | 40.85890 | -75.03318 | 7992 ft | 297 kts | 112° |
| 2026-05-08 01:04 | 40.85174 | -75.00775 | 7763 ft | 295 kts | 112° |
| 2026-05-08 01:04 | 40.84463 | -74.98251 | 7533 ft | 292 kts | 112° |
| 2026-05-08 01:04 | 40.83755 | -74.95741 | 7297 ft | 290 kts | 112° |
| 2026-05-08 01:04 | 40.83053 | -74.93253 | 7083 ft | 289 kts | 111° |
| 2026-05-08 01:05 | 40.82406 | -74.90737 | 7008 ft | 289 kts | 110° |
| 2026-05-08 01:05 | 40.81771 | -74.88227 | 7001 ft | 289 kts | 110° |
| 2026-05-08 01:05 | 40.81136 | -74.85740 | 7007 ft | 289 kts | 113° |
| 2026-05-08 01:05 | 40.80091 | -74.83524 | 6909 ft | 282 kts | 133° |
| 2026-05-08 01:06 | 40.78706 | -74.81707 | 6590 ft | 279 kts | 140° |
| 2026-05-08 01:06 | 40.77272 | -74.80003 | 6193 ft | 276 kts | 140° |
| 2026-05-08 01:06 | 40.75869 | -74.78274 | 5736 ft | 275 kts | 137° |
| 2026-05-08 01:06 | 40.74511 | -74.76499 | 5264 ft | 274 kts | 136° |
| 2026-05-08 01:07 | 40.73197 | -74.74701 | 5057 ft | 274 kts | 135° |
| 2026-05-08 01:07 | 40.71885 | -74.72868 | 5013 ft | 274 kts | 134° |
| 2026-05-08 01:07 | 40.70582 | -74.71033 | 5015 ft | 274 kts | 134° |
| 2026-05-08 01:07 | 40.69279 | -74.69197 | 5015 ft | 274 kts | 134° |
| 2026-05-08 01:08 | 40.67979 | -74.67365 | 5014 ft | 274 kts | 134° |
| 2026-05-08 01:08 | 40.66675 | -74.65532 | 5013 ft | 273 kts | 134° |
| 2026-05-08 01:08 | 40.65374 | -74.63703 | 5014 ft | 273 kts | 134° |
| 2026-05-08 01:08 | 40.64087 | -74.61896 | 5015 ft | 274 kts | 134° |
| 2026-05-08 01:09 | 40.62784 | -74.60069 | 5015 ft | 274 kts | 134° |
| 2026-05-08 01:09 | 40.61482 | -74.58243 | 5014 ft | 274 kts | 134° |
| 2026-05-08 01:09 | 40.60178 | -74.56417 | 5013 ft | 273 kts | 134° |
| 2026-05-08 01:09 | 40.58873 | -74.54589 | 5014 ft | 274 kts | 134° |
| 2026-05-08 01:10 | 40.57590 | -74.52794 | 5010 ft | 261 kts | 134° |
| 2026-05-08 01:10 | 40.56399 | -74.51124 | 5007 ft | 238 kts | 134° |
| 2026-05-08 01:10 | 40.55291 | -74.49573 | 5012 ft | 234 kts | 135° |
| 2026-05-08 01:10 | 40.54180 | -74.48022 | 4934 ft | 229 kts | 135° |
| 2026-05-08 01:11 | 40.53105 | -74.46524 | 4576 ft | 228 kts | 134° |
| 2026-05-08 01:11 | 40.52015 | -74.45007 | 4139 ft | 228 kts | 134° |
| 2026-05-08 01:11 | 40.50934 | -74.43501 | 3734 ft | 226 kts | 134° |
| 2026-05-08 01:11 | 40.49857 | -74.42003 | 3323 ft | 225 kts | 134° |
| 2026-05-08 01:12 | 40.49010 | -74.40329 | 3065 ft | 225 kts | 106° |
| 2026-05-08 01:12 | 40.48967 | -74.38276 | 3021 ft | 224 kts | 76° |
| 2026-05-08 01:12 | 40.49389 | -74.36309 | 3027 ft | 223 kts | 70° |
| 2026-05-08 01:12 | 40.49887 | -74.34399 | 3020 ft | 219 kts | 69° |
| 2026-05-08 01:13 | 40.50388 | -74.32498 | 3019 ft | 220 kts | 70° |
| 2026-05-08 01:13 | 40.50869 | -74.30591 | 3023 ft | 220 kts | 70° |
| 2026-05-08 01:13 | 40.51427 | -74.28719 | 3020 ft | 219 kts | 56° |
| 2026-05-08 01:13 | 40.52458 | -74.27284 | 3023 ft | 217 kts | 34° |
| 2026-05-08 01:14 | 40.53750 | -74.26275 | 3018 ft | 215 kts | 25° |
| 2026-05-08 01:14 | 40.55114 | -74.25454 | 2827 ft | 217 kts | 24° |
| 2026-05-08 01:14 | 40.56452 | -74.24600 | 2526 ft | 214 kts | 24° |
| 2026-05-08 01:14 | 40.57752 | -74.23780 | 2238 ft | 197 kts | 25° |
| 2026-05-08 01:15 | 40.58908 | -74.23045 | 2008 ft | 172 kts | 25° |
| 2026-05-08 01:15 | 40.59921 | -74.22403 | 1772 ft | 153 kts | 25° |
| 2026-05-08 01:15 | 40.60828 | -74.21827 | 1595 ft | 135 kts | 25° |
| 2026-05-08 01:15 | 40.61667 | -74.21296 | 1419 ft | 138 kts | 24° |
| 2026-05-08 01:16 | 40.62517 | -74.20755 | 1224 ft | 133 kts | 24° |
| 2026-05-08 01:16 | 40.63333 | -74.20237 | 1052 ft | 128 kts | 25° |
| 2026-05-08 01:16 | 40.64137 | -74.19721 | 804 ft | 128 kts | 25° |
| 2026-05-08 01:16 | 40.64932 | -74.19198 | 686 ft | 126 kts | 25° |
| 2026-05-08 01:17 | 40.65729 | -74.18703 | 569 ft | 126 kts | 25° |
| 2026-05-08 01:17 | 40.66524 | -74.18200 | 387 ft | 123 kts | 26° |
| 2026-05-08 01:17 | 40.67304 | -74.17716 | 222 ft | 126 kts | 27° |
| 2026-05-08 01:17 | 40.68084 | -74.17216 | 60 ft | 125 kts | 26° |
| 2026-05-08 01:18 | 40.68805 | -74.16760 | 19 ft | 90 kts | 26° |
| 2026-05-08 01:18 | 40.69208 | -74.16504 | 28 ft | 51 kts | 27° |
| 2026-05-08 01:18 | 40.69428 | -74.16458 | 27 ft | 18 kts | 358° |
| 2026-05-08 01:18 | 40.69535 | -74.16464 | 21 ft | 6 kts | 357° |
| 2026-05-08 01:19 | 40.69551 | -74.16464 | 21 ft | 5 kts | 358° |
| 2026-05-08 01:19 | 40.69588 | -74.16474 | 19 ft | 4 kts | 336° |
| 2026-05-08 01:19 | 40.69596 | -74.16488 | 19 ft | 0 kts | 300° |
| 2026-05-08 01:19 | 40.69600 | -74.16498 | 19 ft | 4 kts | 299° |
| 2026-05-08 01:20 | 40.69626 | -74.16565 | 20 ft | 12 kts | 295° |
| 2026-05-08 01:20 | 40.69672 | -74.16686 | 19 ft | 15 kts | 296° |
| 2026-05-08 01:20 | 40.69669 | -74.16817 | 21 ft | 18 kts | 247° |
| 2026-05-08 01:20 | 40.69635 | -74.16942 | 19 ft | 14 kts | 251° |
| 2026-05-08 01:21 | 40.69601 | -74.17058 | 20 ft | 13 kts | 232° |
| 2026-05-08 01:21 | 40.69498 | -74.17075 | 19 ft | 20 kts | 171° |
| 2026-05-08 01:21 | 40.69332 | -74.17089 | 18 ft | 27 kts | 196° |
| 2026-05-08 01:21 | 40.69164 | -74.17192 | 18 ft | 28 kts | 204° |
| 2026-05-08 01:22 | 40.69013 | -74.17289 | 19 ft | 20 kts | 206° |
| 2026-05-08 01:22 | 40.68973 | -74.17315 | 20 ft | 2 kts | 213° |
| 2026-05-08 01:22 | 40.68965 | -74.17350 | 22 ft | 7 kts | 276° |
| 2026-05-08 01:22 | 40.68983 | -74.17417 | 22 ft | 8 kts | 285° |
| 2026-05-08 01:23 | 40.68994 | -74.17476 | 20 ft | 0 kts | 284° |
| 2026-05-08 01:23 | 40.68995 | -74.17482 | 21 ft | 0 kts | 284° |